createdAt,value
2018-01-20T00:00:29.481Z,94.74
2018-01-20T00:01:09.949Z,94.84
2018-01-20T00:01:50.500Z,95.31
2018-01-20T00:02:32.649Z,95.03
2018-01-20T00:03:13.886Z,94.93
2018-01-20T00:03:55.818Z,94.74
2018-01-20T00:04:36.363Z,94.37
2018-01-20T00:05:17.981Z,95.31
2018-01-20T00:05:57.704Z,95.12
2018-01-20T00:06:38.230Z,94.93
2018-01-20T00:07:18.853Z,94.74
2018-01-20T00:08:01.148Z,94.74
2018-01-20T00:08:40.954Z,94.93
2018-01-20T00:09:22.756Z,94.84
2018-01-20T00:10:03.243Z,95.12
2018-01-20T00:10:45.334Z,94.56
2018-01-20T00:11:25.816Z,94.46
2018-01-20T00:12:06.377Z,94.93
2018-01-20T00:12:48.728Z,94.08
2018-01-20T00:13:29.160Z,94.93
2018-01-20T00:14:09.717Z,94.18
2018-01-20T00:14:51.512Z,94.37
2018-01-20T00:15:31.966Z,93.99
2018-01-20T00:16:13.441Z,94.27
2018-01-20T00:16:53.961Z,93.89
2018-01-20T00:17:34.548Z,93.8
2018-01-20T00:18:16.705Z,93.6
2018-01-20T00:18:57.159Z,93.8
2018-01-20T00:19:37.679Z,93.89
2018-01-20T00:20:18.261Z,93.7
2018-01-20T00:20:58.784Z,93.32
2018-01-20T00:21:39.316Z,93.6
2018-01-20T00:22:19.837Z,93.23
2018-01-20T00:23:01.660Z,93.99
2018-01-20T00:23:42.364Z,93.65
2018-01-20T00:24:22.986Z,93.6
2018-01-20T00:25:03.476Z,92.9
2018-01-20T00:25:44.125Z,93.18
2018-01-20T00:26:24.739Z,93.27
2018-01-20T00:27:05.405Z,93.27
2018-01-20T00:27:47.313Z,93.18
2018-01-20T00:28:28.849Z,93.37
2018-01-20T00:29:09.404Z,92.9
2018-01-20T00:29:49.932Z,93.08
2018-01-20T00:30:30.453Z,92.71
2018-01-20T00:31:12.459Z,92.94
2018-01-20T00:31:53.202Z,92.99
2018-01-20T00:32:34.666Z,92.94
2018-01-20T00:33:17.198Z,92.8
2018-01-20T00:33:58.804Z,92.28
2018-01-20T00:34:39.401Z,93.27
2018-01-20T00:35:19.938Z,92.75
2018-01-20T00:36:00.494Z,92.61
2018-01-20T00:36:42.041Z,92.71
2018-01-20T00:37:23.386Z,92.23
2018-01-20T00:38:04.093Z,91.75
2018-01-20T00:38:48.736Z,91.8
2018-01-20T00:39:29.355Z,91.61
2018-01-20T00:40:10.026Z,92.04
2018-01-20T00:40:51.792Z,92.47
2018-01-20T00:41:32.478Z,92.9
2018-01-20T00:42:13.046Z,91.85
2018-01-20T00:42:53.608Z,92.04
2018-01-20T00:43:34.155Z,91.66
2018-01-20T00:44:15.580Z,91.56
2018-01-20T00:44:56.324Z,91.42
2018-01-20T00:45:36.701Z,92.18
2018-01-20T00:46:18.197Z,92.42
2018-01-20T00:46:59.911Z,91.56
2018-01-20T00:47:40.513Z,91.66
2018-01-20T00:48:21.428Z,91.52
2018-01-20T00:49:02.190Z,91.66
2018-01-20T00:49:42.763Z,91.71
2018-01-20T00:50:23.279Z,91.52
2018-01-20T00:51:03.947Z,91.71
2018-01-20T00:51:45.413Z,91.71
2018-01-20T00:52:26.861Z,91.99
2018-01-20T00:53:07.396Z,91.99
2018-01-20T00:53:49.394Z,92.18
2018-01-20T00:54:32.272Z,91.71
2018-01-20T00:55:12.831Z,91.99
2018-01-20T00:55:54.008Z,91.99
2018-01-20T00:57:42.123Z,92.28
2018-01-20T00:58:22.872Z,92.47
2018-01-20T00:59:03.435Z,92.09
2018-01-20T00:59:43.989Z,91.99
2018-01-20T01:00:24.573Z,91.8
2018-01-20T01:01:05.076Z,92.04
2018-01-20T01:01:45.683Z,91.75
2018-01-20T01:02:26.138Z,91.89
2018-01-20T01:03:06.696Z,91.89
2018-01-20T01:03:47.253Z,91.66
2018-01-20T01:04:28.647Z,92.28
2018-01-20T01:05:09.586Z,91.89
2018-01-20T01:05:50.096Z,91.94
2018-01-20T01:06:30.680Z,91.75
2018-01-20T01:07:11.477Z,92.32
2018-01-20T01:07:52.031Z,92.04
2018-01-20T01:08:32.585Z,91.94
2018-01-20T01:09:13.213Z,92.32
2018-01-20T01:09:53.778Z,92.04
2018-01-20T01:10:34.280Z,92.32
2018-01-20T01:11:14.922Z,92.18
2018-01-20T01:11:55.440Z,91.99
2018-01-20T01:12:36.121Z,92.28
2018-01-20T01:13:16.708Z,92.47
2018-01-20T01:13:57.168Z,93.32
2018-01-20T01:14:45.287Z,92.94
2018-01-20T01:15:25.825Z,93.04
2018-01-20T01:16:10.053Z,93.13
2018-01-20T01:16:58.190Z,93.8
2018-01-20T01:17:40.792Z,92.56
2018-01-20T01:18:28.680Z,93.41
2018-01-20T01:19:13.155Z,93.7
2018-01-20T01:19:53.720Z,93.51
2018-01-20T01:20:34.228Z,93.6
2018-01-20T01:21:15.610Z,94.37
2018-01-20T01:21:56.104Z,94.18
2018-01-20T01:22:36.616Z,94.37
2018-01-20T01:23:17.143Z,94.56
2018-01-20T01:23:57.644Z,94.27
2018-01-20T01:24:38.186Z,94.84
2018-01-20T01:25:18.737Z,95.03
2018-01-20T01:25:59.266Z,94.89
2018-01-20T01:26:39.798Z,95.51
2018-01-20T01:27:20.362Z,95.46
2018-01-20T01:28:00.929Z,95.93
2018-01-20T01:28:41.465Z,96.12
2018-01-20T01:29:21.942Z,96.45
2018-01-20T01:30:02.471Z,96.45
2018-01-20T01:30:43.039Z,95.7
2018-01-20T01:31:23.564Z,96.08
2018-01-20T01:32:04.131Z,95.22
2018-01-20T01:32:44.655Z,95.31
2018-01-20T01:33:25.205Z,94.93
2018-01-20T01:34:05.754Z,94.32
2018-01-20T01:34:48.561Z,95.22
2018-01-20T01:35:29.109Z,94.51
2018-01-20T01:36:09.664Z,95.03
2018-01-20T01:36:50.208Z,94.93
2018-01-20T01:37:30.763Z,94.27
2018-01-20T01:38:11.253Z,93.23
2018-01-20T01:38:54.446Z,93.6
2018-01-20T01:39:35.890Z,93.13
2018-01-20T01:40:20.099Z,92.94
2018-01-20T01:41:01.425Z,92.94
2018-01-20T01:43:06.778Z,92.18
2018-01-20T01:43:48.882Z,91.89
2018-01-20T01:44:29.978Z,92.18
2018-01-20T01:45:10.373Z,92.47
2018-01-20T01:45:51.971Z,92.47
2018-01-20T01:46:32.505Z,91.99
2018-01-20T01:47:13.078Z,91.94
2018-01-20T01:47:53.631Z,91.85
2018-01-20T01:48:34.145Z,91.94
2018-01-20T01:50:43.972Z,93.08
2018-01-20T01:53:04.959Z,93.18
2018-01-20T01:53:47.154Z,93.46
2018-01-20T01:54:29.984Z,93.27
2018-01-20T01:55:13.532Z,93.75
2018-01-20T01:55:54.500Z,93.18
2018-01-20T01:56:35.013Z,92.99
2018-01-20T01:57:16.451Z,92.76
2018-01-20T01:57:57.030Z,93.13
2018-01-20T01:58:37.578Z,93.51
2018-01-20T01:59:18.146Z,93.61
2018-01-20T02:01:41.616Z,93.27
2018-01-20T02:02:22.147Z,92.8
2018-01-20T02:03:02.680Z,93.27
2018-01-20T02:03:43.191Z,92.71
2018-01-20T02:04:23.752Z,92.99
2018-01-20T02:05:06.121Z,93.08
2018-01-20T02:05:46.739Z,92.33
2018-01-20T02:06:27.292Z,91.85
2018-01-20T02:07:07.834Z,91.89
2018-01-20T02:07:48.892Z,91.66
2018-01-20T02:08:30.066Z,92.04
2018-01-20T02:09:10.455Z,92.52
2018-01-20T02:09:51.131Z,91.99
2018-01-20T02:10:31.652Z,91.99
2018-01-20T02:11:12.188Z,92.09
2018-01-20T02:11:52.717Z,91.89
2018-01-20T02:12:33.252Z,91.8
2018-01-20T02:13:13.780Z,90.95
2018-01-20T02:13:55.291Z,91.14
2018-01-20T02:14:35.908Z,90.66
2018-01-20T02:15:16.760Z,90.19
2018-01-20T02:15:57.259Z,90.95
2018-01-20T02:16:37.813Z,91.33
2018-01-20T02:17:18.428Z,90.66
2018-01-20T02:18:00.191Z,90.66
2018-01-20T02:18:40.789Z,90.85
2018-01-20T02:19:21.348Z,91.24
2018-01-20T02:20:01.852Z,91.42
2018-01-20T02:20:42.381Z,91.42
2018-01-20T02:21:22.903Z,91.33
2018-01-20T02:22:03.445Z,90.76
2018-01-20T02:22:45.150Z,91.52
2018-01-20T02:23:25.591Z,90.66
2018-01-20T02:24:11.368Z,90.95
2018-01-20T02:24:51.979Z,90.85
2018-01-20T02:25:32.486Z,90.38
2018-01-20T02:26:12.998Z,90.95
2018-01-20T02:26:53.513Z,91.61
2018-01-20T02:27:35.466Z,91.99
2018-01-20T02:28:16.015Z,92.09
2018-01-20T02:28:56.611Z,93.32
2018-01-20T02:29:37.102Z,92.47
2018-01-20T02:30:17.692Z,92.28
2018-01-20T02:30:58.222Z,92.18
2018-01-20T02:31:39.845Z,91.89
2018-01-20T02:32:20.897Z,92.09
2018-01-20T02:33:01.479Z,91.61
2018-01-20T02:33:41.947Z,92.09
2018-01-20T02:34:22.527Z,91.89
2018-01-20T02:35:03.067Z,92.18
2018-01-20T02:35:43.608Z,91.61
2018-01-20T02:36:24.539Z,91.38
2018-01-20T02:37:06.765Z,91.38
2018-01-20T02:37:47.259Z,91.38
2018-01-20T02:38:27.849Z,91.56
2018-01-20T02:39:08.497Z,91.09
2018-01-20T02:41:24.987Z,90.42
2018-01-20T02:42:06.385Z,90.23
2018-01-20T02:42:47.008Z,90.33
2018-01-20T02:43:27.643Z,90.14
2018-01-20T02:44:08.183Z,90.23
2018-01-20T02:44:48.746Z,89.28
2018-01-20T02:45:30.635Z,88.53
2018-01-20T02:46:11.190Z,89.47
2018-01-20T02:46:51.757Z,90.23
2018-01-20T02:47:32.277Z,90.14
2018-01-20T02:48:12.827Z,90.33
2018-01-20T02:48:53.366Z,89.95
2018-01-20T02:49:34.272Z,90.14
2018-01-20T02:50:16.751Z,89.86
2018-01-20T02:50:57.300Z,89.76
2018-01-20T02:51:37.873Z,89.57
2018-01-20T02:52:18.433Z,89.76
2018-01-20T02:52:59.379Z,90.42
2018-01-20T02:53:41.484Z,90.52
2018-01-20T02:54:22.075Z,90.52
2018-01-20T02:55:02.668Z,89.47
2018-01-20T02:55:43.232Z,90.42
2018-01-20T02:56:25.403Z,90.47
2018-01-20T02:57:06.069Z,90.8
2018-01-20T02:57:46.711Z,91.19
2018-01-20T02:58:27.285Z,91.28
2018-01-20T02:59:07.888Z,90.33
2018-01-20T02:59:48.411Z,90.52
2018-01-20T03:00:29.212Z,90.05
2018-01-20T03:01:10.387Z,90.61
2018-01-20T03:01:51.351Z,90.52
2018-01-20T03:02:31.937Z,90.52
2018-01-20T03:03:12.426Z,90.14
2018-01-20T03:03:53.052Z,89.57
2018-01-20T03:04:33.683Z,90.42
2018-01-20T03:05:16.770Z,90.09
2018-01-20T03:05:57.360Z,90.28
2018-01-20T03:06:37.922Z,90.99
2018-01-20T03:07:18.534Z,90.8
2018-01-20T03:08:00.628Z,90.99
2018-01-20T03:08:41.188Z,90.52
2018-01-20T03:09:21.839Z,90.23
2018-01-20T03:10:02.460Z,90.33
2018-01-20T03:10:43.074Z,90.23
2018-01-20T03:11:23.682Z,90.71
2018-01-20T03:12:04.319Z,90.23
2018-01-20T03:12:44.896Z,89.95
2018-01-20T03:13:25.445Z,89.47
2018-01-20T03:14:05.972Z,90.42
2018-01-20T03:14:46.569Z,90.8
2018-01-20T03:15:27.144Z,90.42
2018-01-20T03:16:07.656Z,90.05
2018-01-20T03:16:48.205Z,90.14
2018-01-20T03:17:28.818Z,90.61
2018-01-20T03:18:09.378Z,90.33
2018-01-20T03:18:49.956Z,90.71
2018-01-20T03:19:30.500Z,90.71
2018-01-20T03:20:11.026Z,89.95
2018-01-20T03:20:51.643Z,89.61
2018-01-20T03:21:32.173Z,89.71
2018-01-20T03:22:12.747Z,89.52
2018-01-20T03:22:53.351Z,89
2018-01-20T03:23:33.917Z,89.09
2018-01-20T03:24:14.446Z,88.81
2018-01-20T03:24:55.056Z,89.09
2018-01-20T03:25:35.590Z,89.57
2018-01-20T03:26:16.170Z,90.05
2018-01-20T03:26:56.752Z,90.42
2018-01-20T03:27:38.311Z,90.52
2018-01-20T03:28:18.899Z,90.52
2018-01-20T03:28:59.428Z,90.61
2018-01-20T03:29:42.544Z,90.52
2018-01-20T03:30:23.115Z,90.99
2018-01-20T03:31:03.704Z,90.9
2018-01-20T03:31:44.282Z,90.42
2018-01-20T03:32:24.829Z,90.71
2018-01-20T03:33:05.376Z,90.14
2018-01-20T03:33:45.938Z,90.14
2018-01-20T03:34:26.483Z,89.76
2018-01-20T03:35:07.010Z,89.76
2018-01-20T03:35:47.778Z,89.38
2018-01-20T03:36:28.334Z,89.19
2018-01-20T03:37:08.867Z,89.57
2018-01-20T03:37:49.969Z,90.33
2018-01-20T03:38:30.571Z,90.52
2018-01-20T03:39:11.096Z,90.33
2018-01-20T03:39:51.640Z,90.95
2018-01-20T03:40:32.255Z,91.04
2018-01-20T03:41:12.799Z,91.56
2018-01-20T03:41:54.382Z,91.71
2018-01-20T03:42:34.955Z,91.99
2018-01-20T03:43:15.573Z,92.61
2018-01-20T03:43:56.096Z,91.8
2018-01-20T03:44:36.933Z,92.18
2018-01-20T03:45:17.469Z,92.66
2018-01-20T03:45:58.119Z,92.56
2018-01-20T03:46:39.510Z,92.56
2018-01-20T03:47:21.850Z,92.42
2018-01-20T03:48:02.893Z,92.04
2018-01-20T03:48:43.430Z,91.94
2018-01-20T03:49:24.047Z,91.66
2018-01-20T03:50:04.566Z,92.13
2018-01-20T03:50:45.115Z,92.13
2018-01-20T03:51:26.612Z,92.23
2018-01-20T03:52:07.178Z,91.89
2018-01-20T03:52:47.794Z,91.89
2018-01-20T03:53:28.357Z,92.66
2018-01-20T03:54:08.909Z,93.37
2018-01-20T03:54:49.461Z,92.32
2018-01-20T03:55:30.053Z,92.47
2018-01-20T03:56:11.344Z,92.61
2018-01-20T03:56:51.905Z,93.27
2018-01-20T03:57:33.075Z,92.75
2018-01-20T03:58:13.632Z,92.85
2018-01-20T03:58:54.190Z,92.75
2018-01-20T03:59:34.788Z,93.32
2018-01-20T04:00:15.344Z,93.32
2018-01-20T04:00:55.923Z,93.8
2018-01-20T04:01:36.501Z,94.08
2018-01-20T04:02:17.063Z,93.89
2018-01-20T04:02:57.643Z,94.46
2018-01-20T04:03:38.209Z,94.84
2018-01-20T04:04:20.657Z,95.03
2018-01-20T04:05:02.064Z,94.27
2018-01-20T04:05:42.641Z,93.7
2018-01-20T04:06:23.194Z,94.46
2018-01-20T04:07:03.806Z,94.42
2018-01-20T04:07:44.382Z,94.08
2018-01-20T04:08:24.941Z,93.8
2018-01-20T04:09:05.475Z,93.7
2018-01-20T04:09:46.026Z,92.94
2018-01-20T04:10:26.596Z,93.23
2018-01-20T04:11:07.296Z,93.6
2018-01-20T04:11:47.825Z,93.8
2018-01-20T04:12:28.392Z,94.08
2018-01-20T04:13:08.950Z,93.41
2018-01-20T04:13:49.511Z,94.08
2018-01-20T04:14:30.066Z,94.13
2018-01-20T04:15:10.614Z,93.46
2018-01-20T04:15:51.207Z,92.8
2018-01-20T04:16:31.715Z,93.04
2018-01-20T04:17:12.282Z,93.51
2018-01-20T04:17:52.838Z,93.99
2018-01-20T04:18:33.415Z,93.51
2018-01-20T04:19:13.985Z,93.89
2018-01-20T04:19:54.540Z,94.08
2018-01-20T04:20:35.114Z,94.08
2018-01-20T04:21:15.640Z,94.18
2018-01-20T04:21:56.231Z,93.99
2018-01-20T04:22:36.791Z,93.99
2018-01-20T04:23:17.351Z,94.84
2018-01-20T04:23:57.922Z,94.84
2018-01-20T04:24:38.436Z,95.12
2018-01-20T04:25:18.987Z,95.03
2018-01-20T04:25:59.586Z,95.12
2018-01-20T04:26:40.122Z,95.22
2018-01-20T04:27:20.702Z,94.32
2018-01-20T04:28:01.252Z,94.37
2018-01-20T04:28:41.829Z,94.13
2018-01-20T04:29:22.432Z,93.37
2018-01-20T04:30:02.994Z,93.27
2018-01-20T04:30:43.619Z,93.37
2018-01-20T04:31:24.232Z,93.56
2018-01-20T04:32:04.718Z,92.9
2018-01-20T04:32:45.223Z,93.08
2018-01-20T04:33:25.898Z,93.65
2018-01-20T04:34:06.458Z,93.65
2018-01-20T04:34:47.061Z,93.51
2018-01-20T04:35:27.618Z,93.99
2018-01-20T04:36:08.180Z,93.99
2018-01-20T04:36:48.780Z,93.89
2018-01-20T04:37:29.401Z,93.8
2018-01-20T04:38:09.953Z,94.08
2018-01-20T04:38:50.509Z,93.41
2018-01-20T04:39:31.044Z,93.51
2018-01-20T04:40:11.631Z,93.89
2018-01-20T04:40:52.187Z,94.18
2018-01-20T04:41:32.753Z,94.27
2018-01-20T04:42:13.308Z,94.27
2018-01-20T04:42:53.893Z,94.27
2018-01-20T04:43:34.470Z,94.32
2018-01-20T04:44:15.054Z,93.89
2018-01-20T04:44:55.578Z,93.99
2018-01-20T04:45:36.138Z,94.93
2018-01-20T04:46:16.708Z,94.65
2018-01-20T04:46:57.244Z,94.84
2018-01-20T04:47:37.926Z,94.46
2018-01-20T04:48:18.532Z,95.22
2018-01-20T04:48:59.096Z,94.84
2018-01-20T04:49:39.666Z,94.93
2018-01-20T04:50:20.208Z,94.93
2018-01-20T04:51:00.801Z,95.79
2018-01-20T04:51:41.358Z,95.7
2018-01-20T04:52:21.910Z,95.51
2018-01-20T04:53:02.502Z,95.6
2018-01-20T04:53:43.036Z,95.7
2018-01-20T04:54:23.579Z,94.93
2018-01-20T04:55:04.131Z,95.6
2018-01-20T04:55:44.714Z,95.79
2018-01-20T04:56:25.295Z,95.22
2018-01-20T04:57:05.907Z,95.12
2018-01-20T04:57:46.464Z,95.89
2018-01-20T04:58:26.994Z,95.7
2018-01-20T04:59:07.608Z,95.89
2018-01-20T04:59:48.196Z,96.36
2018-01-20T05:00:28.743Z,96.26
2018-01-20T05:01:09.397Z,96.83
2018-01-20T05:01:49.967Z,96.64
2018-01-20T05:02:30.541Z,96.64
2018-01-20T05:03:11.137Z,96.17
2018-01-20T05:03:51.653Z,95.7
2018-01-20T05:04:32.223Z,95.98
2018-01-20T05:05:12.826Z,96.45
2018-01-20T05:05:53.344Z,97.6
2018-01-20T05:06:33.884Z,97.41
2018-01-20T05:07:14.458Z,97.22
2018-01-20T05:07:55.001Z,96.64
2018-01-20T05:08:35.567Z,96.83
2018-01-20T05:09:16.243Z,96.93
2018-01-20T05:09:56.804Z,96.83
2018-01-20T05:10:37.426Z,96.64
2018-01-20T05:11:17.977Z,96.83
2018-01-20T05:11:58.557Z,96.83
2018-01-20T05:12:39.109Z,96.83
2018-01-20T05:13:21.270Z,97.41
2018-01-20T05:14:01.919Z,97.6
2018-01-20T05:14:42.511Z,97.02
2018-01-20T05:15:23.032Z,97.41
2018-01-20T05:16:03.625Z,98.16
2018-01-20T05:16:44.192Z,97.41
2018-01-20T05:17:24.824Z,97.6
2018-01-20T05:18:05.443Z,97.88
2018-01-20T05:18:46.020Z,97.12
2018-01-20T05:19:26.615Z,97.41
2018-01-20T05:20:07.180Z,97.6
2018-01-20T05:20:47.724Z,97.97
2018-01-20T05:21:28.273Z,97.97
2018-01-20T05:22:08.850Z,98.16
2018-01-20T05:22:49.392Z,97.31
2018-01-20T05:23:30.014Z,97.31
2018-01-20T05:24:10.597Z,96.93
2018-01-20T05:24:51.140Z,97.31
2018-01-20T05:25:31.664Z,97.31
2018-01-20T05:26:12.183Z,97.41
2018-01-20T05:26:52.777Z,97.5
2018-01-20T05:27:33.331Z,97.97
2018-01-20T05:28:13.918Z,97.97
2018-01-20T05:28:54.493Z,98.07
2018-01-20T05:29:35.078Z,98.16
2018-01-20T05:30:15.712Z,97.97
2018-01-20T05:30:56.265Z,98.45
2018-01-20T05:31:36.792Z,99.11
2018-01-20T05:32:17.406Z,98.45
2018-01-20T05:32:57.999Z,98.07
2018-01-20T05:33:38.522Z,97.97
2018-01-20T05:34:19.091Z,97.88
2018-01-20T05:34:59.674Z,98.26
2018-01-20T05:35:40.220Z,98.45
2018-01-20T05:36:20.796Z,98.35
2018-01-20T05:37:01.461Z,98.07
2018-01-20T05:37:42.016Z,97.78
2018-01-20T05:38:22.647Z,98.16
2018-01-20T05:39:03.231Z,97.41
2018-01-20T05:39:43.755Z,97.6
2018-01-20T05:40:24.293Z,97.22
2018-01-20T05:41:04.793Z,97.6
2018-01-20T05:41:45.410Z,97.31
2018-01-20T05:42:25.942Z,97.6
2018-01-20T05:43:06.511Z,97.6
2018-01-20T05:43:47.085Z,97.41
2018-01-20T05:44:27.624Z,97.31
2018-01-20T05:45:08.202Z,97.02
2018-01-20T05:45:48.756Z,97.02
2018-01-20T05:46:29.320Z,97.55
2018-01-20T05:47:09.847Z,97.41
2018-01-20T05:47:50.427Z,97.41
2018-01-20T05:48:31.131Z,97.31
2018-01-20T05:49:11.726Z,97.31
2018-01-20T05:49:52.285Z,97.41
2018-01-20T05:50:32.930Z,97.31
2018-01-20T05:51:13.519Z,97.41
2018-01-20T05:51:54.079Z,96.83
2018-01-20T05:52:34.624Z,97.12
2018-01-20T05:53:15.195Z,97.41
2018-01-20T05:53:55.716Z,97.41
2018-01-20T05:54:36.263Z,96.74
2018-01-20T05:55:16.919Z,96.64
2018-01-20T05:55:57.489Z,97.02
2018-01-20T05:56:38.052Z,97.12
2018-01-20T05:57:18.608Z,97.6
2018-01-20T05:57:59.161Z,97.12
2018-01-20T05:58:39.723Z,96.55
2018-01-20T05:59:20.284Z,96.64
2018-01-20T06:00:00.861Z,97.22
2018-01-20T06:00:41.429Z,97.41
2018-01-20T06:01:22.017Z,98.16
2018-01-20T06:02:02.597Z,98.35
2018-01-20T06:02:43.176Z,98.3
2018-01-20T06:03:23.755Z,98.4
2018-01-20T06:04:04.326Z,98.02
2018-01-20T06:04:44.878Z,98.45
2018-01-20T06:05:25.432Z,98.26
2018-01-20T06:06:06.010Z,97.97
2018-01-20T06:06:46.581Z,97.97
2018-01-20T06:07:27.170Z,98.35
2018-01-20T06:08:07.755Z,97.97
2018-01-20T06:08:48.295Z,97.31
2018-01-20T06:09:28.913Z,97.41
2018-01-20T06:10:09.358Z,97.41
2018-01-20T06:10:50.046Z,97.41
2018-01-20T06:11:30.572Z,97.12
2018-01-20T06:12:11.130Z,96.93
2018-01-20T06:12:51.699Z,96.83
2018-01-20T06:13:32.229Z,97.41
2018-01-20T06:14:12.817Z,97.12
2018-01-20T06:14:53.428Z,96.83
2018-01-20T06:15:33.945Z,97.31
2018-01-20T06:16:14.506Z,97.12
2018-01-20T06:16:55.225Z,97.12
2018-01-20T06:17:35.713Z,97.22
2018-01-20T06:18:16.396Z,97.02
2018-01-20T06:18:56.976Z,97.22
2018-01-20T06:19:37.566Z,97.22
2018-01-20T06:20:18.176Z,97.31
2018-01-20T06:20:58.713Z,97.41
2018-01-20T06:21:39.305Z,97.22
2018-01-20T06:22:19.896Z,97.41
2018-01-20T06:23:00.353Z,97.41
2018-01-20T06:23:40.970Z,97.31
2018-01-20T06:24:21.526Z,97.12
2018-01-20T06:25:02.802Z,97.02
2018-01-20T06:25:43.476Z,97.27
2018-01-20T06:26:24.024Z,97.6
2018-01-20T06:27:04.642Z,96.83
2018-01-20T06:27:45.199Z,96.83
2018-01-20T06:28:25.794Z,97.5
2018-01-20T06:29:06.330Z,97.41
2018-01-20T06:29:46.922Z,97.02
2018-01-20T06:30:27.518Z,97.31
2018-01-20T06:31:08.074Z,97.41
2018-01-20T06:31:48.676Z,97.12
2018-01-20T06:32:29.137Z,97.69
2018-01-20T06:33:09.688Z,97.69
2018-01-20T06:33:50.205Z,98.07
2018-01-20T06:34:30.765Z,98.92
2018-01-20T06:35:11.365Z,98.64
2018-01-20T06:35:51.930Z,98.73
2018-01-20T06:36:32.491Z,98.92
2018-01-20T06:37:13.108Z,98.92
2018-01-20T06:37:53.634Z,98.64
2018-01-20T06:38:34.212Z,98.26
2018-01-20T06:39:14.806Z,97.88
2018-01-20T06:39:55.413Z,98.45
2018-01-20T06:40:36.078Z,98.07
2018-01-20T06:41:16.634Z,98.26
2018-01-20T06:41:57.218Z,98.26
2018-01-20T06:42:37.733Z,98.45
2018-01-20T06:43:18.351Z,97.69
2018-01-20T06:43:58.921Z,97.78
2018-01-20T06:44:39.539Z,98.07
2018-01-20T06:45:20.140Z,98.35
2018-01-20T06:46:00.818Z,98.26
2018-01-20T06:46:41.379Z,98.16
2018-01-20T06:47:21.939Z,97.97
2018-01-20T06:48:02.492Z,97.41
2018-01-20T06:48:43.060Z,97.41
2018-01-20T06:49:23.656Z,97.22
2018-01-20T06:50:04.275Z,97.97
2018-01-20T06:50:44.868Z,98.16
2018-01-20T06:51:25.413Z,97.78
2018-01-20T06:52:06.028Z,97.41
2018-01-20T06:52:46.620Z,98.16
2018-01-20T06:53:27.212Z,97.83
2018-01-20T06:54:07.888Z,97.6
2018-01-20T06:54:48.395Z,97.45
2018-01-20T06:55:29.036Z,97.36
2018-01-20T06:56:09.616Z,96.98
2018-01-20T06:56:50.208Z,96.98
2018-01-20T06:57:30.810Z,97.45
2018-01-20T06:58:11.345Z,98.02
2018-01-20T06:58:51.892Z,97.45
2018-01-20T06:59:32.446Z,98.21
2018-01-20T07:00:21.573Z,97.22
2018-01-20T07:01:06.028Z,97.64
2018-01-20T07:01:48.402Z,97.31
2018-01-20T07:02:28.904Z,98.31
2018-01-20T07:03:09.527Z,98.02
2018-01-20T07:03:50.097Z,97.5
2018-01-20T07:04:30.682Z,97.88
2018-01-20T07:05:11.204Z,98.31
2018-01-20T07:05:51.821Z,98.4
2018-01-20T07:30:16.051Z,97.36
2018-01-20T07:30:56.609Z,97.27
2018-01-20T07:31:37.196Z,97.45
2018-01-20T07:32:17.847Z,97.45
2018-01-20T07:32:58.431Z,97.36
2018-01-20T07:33:38.965Z,97.45
2018-01-20T07:34:19.603Z,97.97
2018-01-20T07:35:00.055Z,98.07
2018-01-20T07:35:42.498Z,98.31
2018-01-20T07:36:23.044Z,97.92
2018-01-20T07:37:03.632Z,97.83
2018-01-20T07:37:44.215Z,97.55
2018-01-20T07:38:24.796Z,97.36
2018-01-20T07:39:05.345Z,97.45
2018-01-20T07:39:45.900Z,97.45
2018-01-20T07:40:26.528Z,96.79
2018-01-20T07:41:07.036Z,97.17
2018-01-20T07:41:47.585Z,96.69
2018-01-20T07:42:28.159Z,97.27
2018-01-20T07:43:08.661Z,96.88
2018-01-20T07:43:49.220Z,96.6
2018-01-20T07:44:29.840Z,96.31
2018-01-20T07:45:10.441Z,96.31
2018-01-20T07:45:50.977Z,96.41
2018-01-20T07:46:31.560Z,96.88
2018-01-20T07:47:12.102Z,96.22
2018-01-20T07:47:52.660Z,96.41
2018-01-20T07:48:33.162Z,96.31
2018-01-20T07:49:13.743Z,96.41
2018-01-20T07:49:54.250Z,96.31
2018-01-20T07:50:34.776Z,95.94
2018-01-20T07:51:15.351Z,95.75
2018-01-20T07:51:55.899Z,95.84
2018-01-20T07:52:36.423Z,95.51
2018-01-20T07:53:16.934Z,95.51
2018-01-20T07:53:58.120Z,95.41
2018-01-20T07:54:38.710Z,95.6
2018-01-20T07:55:19.252Z,95.79
2018-01-20T07:55:59.838Z,96.08
2018-01-20T07:56:40.369Z,96.36
2018-01-20T07:57:20.902Z,95.75
2018-01-20T07:58:01.418Z,95.55
2018-01-20T07:58:41.953Z,95.55
2018-01-20T07:59:22.515Z,95.36
2018-01-20T08:00:03.140Z,95.84
2018-01-20T08:00:43.687Z,95.55
2018-01-20T08:01:24.303Z,95.84
2018-01-20T08:02:04.822Z,95.75
2018-01-20T08:02:45.412Z,95.08
2018-01-20T08:03:26.065Z,94.93
2018-01-20T08:04:06.617Z,94.27
2018-01-20T08:04:47.261Z,94.79
2018-01-20T08:05:27.827Z,95.6
2018-01-20T08:06:08.522Z,94.84
2018-01-20T08:06:49.042Z,95.17
2018-01-20T08:07:29.601Z,94.98
2018-01-20T08:08:10.091Z,94.84
2018-01-20T08:08:50.645Z,94.93
2018-01-20T08:09:31.226Z,94.93
2018-01-20T08:10:11.847Z,94.93
2018-01-20T08:10:52.343Z,94.84
2018-01-20T08:11:32.923Z,94.37
2018-01-20T08:12:13.452Z,94.84
2018-01-20T08:12:53.970Z,94.93
2018-01-20T08:13:34.516Z,95.03
2018-01-20T08:14:15.118Z,94.27
2018-01-20T08:14:55.760Z,94.37
2018-01-20T08:15:36.304Z,93.89
2018-01-20T08:16:16.810Z,94.74
2018-01-20T08:16:57.437Z,95.12
2018-01-20T08:17:37.952Z,94.37
2018-01-20T08:18:18.492Z,94.46
2018-01-20T08:18:59.074Z,94.37
2018-01-20T08:19:39.643Z,94.27
2018-01-20T08:20:20.168Z,94.56
2018-01-20T08:21:01.664Z,94.08
2018-01-20T08:21:41.358Z,93.7
2018-01-20T08:22:22.004Z,92.75
2018-01-20T08:23:02.529Z,92.66
2018-01-20T08:23:43.059Z,93.23
2018-01-20T08:24:23.640Z,93.89
2018-01-20T08:25:04.236Z,93.79
2018-01-20T08:25:44.817Z,93.6
2018-01-20T08:26:25.334Z,94.46
2018-01-20T08:27:05.854Z,94.27
2018-01-20T08:27:48.224Z,94.46
2018-01-20T08:28:28.781Z,93.32
2018-01-20T08:29:09.328Z,93.79
2018-01-20T08:29:49.852Z,93.89
2018-01-20T08:30:30.552Z,94.08
2018-01-20T08:31:11.260Z,93.7
2018-01-20T08:31:51.742Z,93.6
2018-01-20T08:32:32.350Z,92.56
2018-01-20T08:33:12.934Z,92.85
2018-01-20T08:33:53.451Z,92.85
2018-01-20T08:34:34.156Z,92.94
2018-01-20T08:35:14.798Z,93.13
2018-01-20T08:35:55.367Z,92.94
2018-01-20T08:36:35.934Z,92.94
2018-01-20T08:37:16.491Z,92.75
2018-01-20T08:37:57.011Z,93.51
2018-01-20T08:38:37.554Z,93.04
2018-01-20T08:39:19.803Z,92.94
2018-01-20T08:40:00.403Z,92.75
2018-01-20T08:40:40.960Z,93.41
2018-01-20T08:41:22.121Z,93.41
2018-01-20T08:42:04.425Z,93.6
2018-01-20T08:42:44.956Z,92.75
2018-01-20T08:43:25.553Z,93.13
2018-01-20T08:44:06.053Z,92.94
2018-01-20T08:44:46.675Z,92.85
2018-01-20T08:45:27.272Z,92.94
2018-01-20T08:46:07.860Z,92.37
2018-01-20T08:46:48.484Z,92.66
2018-01-20T08:47:29.076Z,92.75
2018-01-20T08:48:09.690Z,91.56
2018-01-20T08:48:50.230Z,91.42
2018-01-20T08:49:30.889Z,91.61
2018-01-20T08:50:11.393Z,91.71
2018-01-20T08:50:51.997Z,92.56
2018-01-20T08:51:32.616Z,92.13
2018-01-20T08:52:13.162Z,91.56
2018-01-20T08:52:53.748Z,91.13
2018-01-20T08:53:34.283Z,91.56
2018-01-20T08:54:14.947Z,91.75
2018-01-20T08:54:55.445Z,91.23
2018-01-20T08:55:36.134Z,91.52
2018-01-20T08:56:16.691Z,91.8
2018-01-20T08:56:57.288Z,91.61
2018-01-20T08:57:37.942Z,91.42
2018-01-20T08:58:18.467Z,91.71
2018-01-20T08:58:59.024Z,92.46
2018-01-20T08:59:39.611Z,92.46
2018-01-20T09:00:20.323Z,92.94
2018-01-20T09:01:02.749Z,92.75
2018-01-20T09:01:43.551Z,92.75
2018-01-20T09:02:24.145Z,92.85
2018-01-20T09:03:04.802Z,93.32
2018-01-20T09:03:45.291Z,93.32
2018-01-20T09:04:25.954Z,93.51
2018-01-20T09:05:08.245Z,93.89
2018-01-20T09:05:48.848Z,94.56
2018-01-20T09:06:29.444Z,94.18
2018-01-20T09:07:10.039Z,95.12
2018-01-20T09:07:50.619Z,93.7
2018-01-20T09:08:31.212Z,94.08
2018-01-20T09:09:11.805Z,94.27
2018-01-20T09:09:52.369Z,93.79
2018-01-20T09:10:33.006Z,93.32
2018-01-20T09:11:13.580Z,93.75
2018-01-20T09:11:54.178Z,94.6
2018-01-20T09:12:34.702Z,95.17
2018-01-20T09:13:15.359Z,94.6
2018-01-20T09:13:55.860Z,95.65
2018-01-20T09:14:36.440Z,95.36
2018-01-20T09:15:17.015Z,95.41
2018-01-20T09:15:57.567Z,95.36
2018-01-20T09:16:38.141Z,95.36
2018-01-20T09:18:38.717Z,96.12
2018-01-20T09:19:19.270Z,96.79
2018-01-20T09:19:59.815Z,98.31
2018-01-20T09:20:40.370Z,99.5
2018-01-20T09:21:21.007Z,98.93